createdAt,value
2024-02-08T00:01:51.183Z,99869.50
2024-02-08T00:04:24.174Z,99872.22
2024-02-08T00:06:59.933Z,99871.53
2024-02-08T00:09:32.452Z,99872.59
2024-02-08T00:12:05.198Z,99864.16
2024-02-08T00:14:35.274Z,99866.06
2024-02-08T00:17:08.077Z,99864.41
2024-02-08T00:19:41.117Z,99861.19
2024-02-08T00:22:15.420Z,99868.38
2024-02-08T00:24:50.998Z,99864.34
2024-02-08T00:27:21.349Z,99861.97
2024-02-08T00:29:54.326Z,99859.69
2024-02-08T00:32:26.637Z,99857.31
2024-02-08T00:35:10.377Z,99853.28
2024-02-08T00:37:41.870Z,99850.06
2024-02-08T00:40:14.321Z,99854.44
2024-02-08T00:42:47.671Z,99855.50
2024-02-08T00:45:23.659Z,99858.34
2024-02-08T00:47:56.032Z,99858.56
2024-02-08T00:50:31.324Z,99863.78
2024-02-08T00:53:05.057Z,99869.00
2024-02-08T00:55:35.370Z,99868.16
2024-02-08T00:58:09.130Z,99860.34
2024-02-08T01:00:42.065Z,99864.72
2024-02-08T01:03:12.555Z,99860.44
2024-02-08T01:05:50.318Z,99865.78
2024-02-08T01:08:20.365Z,99860.66
2024-02-08T01:10:52.991Z,99860.75
2024-02-08T01:13:25.639Z,99864.31
2024-02-08T01:15:55.927Z,99853.16
2024-02-08T01:18:31.048Z,99854.84
2024-02-08T01:21:03.946Z,99859.09
2024-02-08T01:23:34.413Z,99853.16
2024-02-08T01:26:05.501Z,99851.63
2024-02-08T01:28:35.776Z,99860.59
2024-02-08T01:31:06.424Z,99859.16
2024-02-08T01:33:39.288Z,99862.72
2024-02-08T01:36:12.672Z,99866.59
2024-02-08T01:38:43.465Z,99866.81
2024-02-08T01:41:18.313Z,99868.59
2024-02-08T01:43:54.488Z,99865.97
2024-02-08T01:46:27.016Z,99857.22
2024-02-08T01:48:57.454Z,99854.50
2024-02-08T01:51:32.720Z,99846.69
2024-02-08T01:54:03.374Z,99857.13
2024-02-08T01:56:35.504Z,99846.69
2024-02-08T01:59:05.721Z,99844.81
2024-02-08T02:01:35.889Z,99841.50
2024-02-08T02:04:09.310Z,99835.34
2024-02-08T02:06:42.809Z,99831.78
2024-02-08T02:09:13.296Z,99830.84
2024-02-08T02:11:48.244Z,99828.25
2024-02-08T02:14:30.810Z,99822.31
2024-02-08T02:17:13.996Z,99823.25
2024-02-08T02:19:45.302Z,99814.50
2024-02-08T02:22:23.768Z,99811.19
2024-02-08T02:24:53.931Z,99817.34
2024-02-08T02:27:24.126Z,99809.41
2024-02-08T02:29:55.835Z,99811.06
2024-02-08T02:32:32.439Z,99810.25
2024-02-08T02:35:03.178Z,99806.09
2024-02-08T02:37:36.514Z,99803.81
2024-02-08T02:40:10.594Z,99802.38
2024-02-08T02:42:40.866Z,99799.06
2024-02-08T02:45:23.206Z,99802.56
2024-02-08T02:47:55.229Z,99795.72
2024-02-08T02:50:26.149Z,99801.03
2024-02-08T02:53:04.343Z,99800.31
2024-02-08T02:55:38.695Z,99801.97
2024-02-08T02:58:11.283Z,99800.91
2024-02-08T03:00:41.363Z,99802.69
2024-02-08T03:03:14.190Z,99799.13
2024-02-08T03:05:50.851Z,99795.72
2024-02-08T03:08:26.436Z,99798.41
2024-02-08T03:10:57.811Z,99807.19
2024-02-08T03:13:27.967Z,99802.81
2024-02-08T03:15:59.461Z,99796.88
2024-02-08T03:18:30.590Z,99794.38
2024-02-08T03:21:03.970Z,99796.16
2024-02-08T03:23:39.770Z,99795.53
2024-02-08T03:26:13.087Z,99795.78
2024-02-08T03:28:47.846Z,99797.44
2024-02-08T03:31:21.294Z,99798.03
2024-02-08T03:33:57.620Z,99799.69
2024-02-08T03:36:29.116Z,99794.50
2024-02-08T03:39:05.487Z,99792.00
2024-02-08T03:41:35.676Z,99794.50
2024-02-08T03:44:09.001Z,99785.75
2024-02-08T03:46:40.224Z,99782.19
2024-02-08T03:49:14.021Z,99783.75
2024-02-08T03:51:50.618Z,99790.50
2024-02-08T03:54:27.833Z,99783.53
2024-02-08T03:57:00.708Z,99788.66
2024-02-08T03:59:32.075Z,99792.91
2024-02-08T04:02:06.963Z,99803.31
2024-02-08T04:04:51.394Z,99794.69
2024-02-08T04:07:48.186Z,99799.78
2024-02-08T04:10:31.262Z,99799.91
2024-02-08T04:13:14.439Z,99795.50
2024-02-08T04:16:12.029Z,99803.31
2024-02-08T04:18:55.861Z,99800.72
2024-02-08T04:21:47.974Z,99802.38
2024-02-08T04:24:45.174Z,99793.63
2024-02-08T04:27:30.375Z,99801.31
2024-02-08T04:30:18.154Z,99800.38
2024-02-08T04:33:03.049Z,99794.22
2024-02-08T04:35:45.721Z,99795.91
2024-02-08T04:38:28.186Z,99798.50
2024-02-08T04:41:10.673Z,99798.38
2024-02-08T04:44:01.984Z,99797.44
2024-02-08T04:46:44.506Z,99800.03
2024-02-08T04:49:30.467Z,99795.66
2024-02-08T04:52:18.541Z,99791.53
2024-02-08T04:54:48.650Z,99797.44
2024-02-08T04:57:18.791Z,99791.53
2024-02-08T04:59:54.441Z,99792.34
2024-02-08T05:02:28.224Z,99798.38
2024-02-08T05:04:58.399Z,99783.59
2024-02-08T05:07:29.549Z,99779.94
2024-02-08T05:10:00.395Z,99779.94
2024-02-08T05:12:31.469Z,99780.66
2024-02-08T05:15:04.155Z,99784.91
2024-02-08T05:17:34.344Z,99778.75
2024-02-08T05:20:05.584Z,99781.25
2024-02-08T05:22:35.713Z,99781.25
2024-02-08T05:25:11.527Z,99781.25
2024-02-08T05:30:21.042Z,99777.09
2024-02-08T05:32:53.117Z,99779.00
2024-02-08T05:35:23.563Z,99780.88
2024-02-08T05:37:55.050Z,99777.91
2024-02-08T05:40:25.201Z,99787.78
2024-02-08T05:42:56.025Z,99792.38
2024-02-08T05:45:32.255Z,99774.28
2024-02-08T05:48:07.654Z,99784.56
2024-02-08T05:50:38.231Z,99786.22
2024-02-08T05:53:10.657Z,99781.97
2024-02-08T05:55:41.599Z,99778.66
2024-02-08T05:58:17.888Z,99783.25
2024-02-08T06:00:54.715Z,99789.72
2024-02-08T06:03:35.502Z,99773.72
2024-02-08T06:06:17.586Z,99778.31
2024-02-08T06:08:48.120Z,99768.84
2024-02-08T06:11:21.523Z,99766.25
2024-02-08T06:13:56.683Z,99762.00
2024-02-08T06:16:47.000Z,99761.88
2024-02-08T06:19:19.528Z,99759.38
2024-02-08T06:21:56.015Z,99749.31
2024-02-08T06:24:47.916Z,99752.25
2024-02-08T06:27:25.004Z,99746.63
2024-02-08T06:29:55.234Z,99742.25
2024-02-08T06:32:35.268Z,99748.50
2024-02-08T06:35:13.557Z,99753.44
2024-02-08T06:37:45.877Z,99742.41
2024-02-08T06:40:23.353Z,99759.06
2024-02-08T06:43:11.922Z,99760.22
2024-02-08T06:46:11.446Z,99755.75
2024-02-08T06:48:50.792Z,99759.78
2024-02-08T06:51:33.399Z,99775.28
2024-02-08T06:54:16.012Z,99781.00
2024-02-08T06:56:58.676Z,99772.34
2024-02-08T06:59:41.193Z,99775.06
2024-02-08T07:02:24.258Z,99780.28
2024-02-08T07:05:13.095Z,99778.41
2024-02-08T07:07:56.968Z,99792.44
2024-02-08T07:10:43.614Z,99792.06
2024-02-08T07:13:26.639Z,99796.25
2024-02-08T07:16:09.544Z,99782.19
2024-02-08T07:18:55.619Z,99803.31
2024-02-08T07:21:47.393Z,99788.03
2024-02-08T07:24:29.890Z,99781.78
2024-02-08T07:27:12.650Z,99786.66
2024-02-08T07:29:56.294Z,99784.78
2024-02-08T07:32:38.738Z,99797.41
2024-02-08T07:35:21.840Z,99804.44
2024-02-08T07:37:54.645Z,99785.13
2024-02-08T07:40:28.508Z,99795.81
2024-02-08T07:43:12.297Z,99796.44
2024-02-08T07:45:42.407Z,99788.72
2024-02-08T07:48:14.745Z,99786.25
2024-02-08T07:50:51.650Z,99777.00
2024-02-08T07:53:35.799Z,99780.31
2024-02-08T07:56:18.780Z,99793.72
2024-02-08T07:58:50.240Z,99791.34
2024-02-08T08:01:22.104Z,99796.44
2024-02-08T08:03:58.225Z,99792.56
2024-02-08T08:06:36.248Z,99788.06
2024-02-08T08:09:22.464Z,99788.28
2024-02-08T08:11:54.079Z,99776.13
2024-02-08T08:14:43.064Z,99777.22
2024-02-08T08:17:32.184Z,99763.66
2024-02-08T08:20:18.021Z,99756.28
2024-02-08T08:22:56.247Z,99760.09
2024-02-08T08:25:54.669Z,99765.81
2024-02-08T08:28:37.243Z,99772.44
2024-02-08T08:31:36.630Z,99782.03
2024-02-08T08:34:21.920Z,99766.41
2024-02-08T08:37:04.769Z,99762.03
2024-02-08T08:39:48.724Z,99751.63
2024-02-08T08:42:25.653Z,99746.56
2024-02-08T08:44:58.795Z,99740.00
2024-02-08T08:47:29.840Z,99741.78
2024-02-08T08:50:19.546Z,99738.88
2024-02-08T08:52:51.151Z,99742.31
2024-02-08T08:55:22.066Z,99743.63
2024-02-08T08:58:01.926Z,99745.00
2024-02-08T09:00:37.909Z,99752.34
2024-02-08T09:03:11.928Z,99762.31
2024-02-08T09:05:44.972Z,99762.78
2024-02-08T09:08:23.697Z,99770.16
2024-02-08T09:10:58.112Z,99756.91
2024-02-08T09:13:31.501Z,99765.31
2024-02-08T09:16:22.223Z,99768.63
2024-02-08T09:19:04.858Z,99760.72
2024-02-08T09:21:37.246Z,99752.06
2024-02-08T09:24:12.558Z,99761.06
2024-02-08T09:27:02.430Z,99757.63
2024-02-08T09:29:40.418Z,99765.00
2024-02-08T09:32:38.978Z,99757.06
2024-02-08T09:35:14.152Z,99752.81
2024-02-08T09:37:47.716Z,99748.66
2024-02-08T09:40:44.042Z,99752.00
2024-02-08T09:43:21.017Z,99755.19
2024-02-08T09:46:07.294Z,99747.03
2024-02-08T09:48:49.337Z,99756.16
2024-02-08T09:51:27.210Z,99768.72
2024-02-08T09:54:16.588Z,99771.91
2024-02-08T09:56:51.738Z,99767.94
2024-02-08T09:59:41.972Z,99763.31
2024-02-08T10:02:26.036Z,99755.72
2024-02-08T10:05:00.273Z,99748.38
2024-02-08T10:07:35.997Z,99759.41
2024-02-08T10:10:19.610Z,99761.78
2024-02-08T10:13:05.766Z,99760.22
2024-02-08T10:15:45.685Z,99756.09
2024-02-08T10:18:24.777Z,99750.75
2024-02-08T10:20:59.894Z,99749.22
2024-02-08T10:23:37.493Z,99732.13
2024-02-08T10:26:20.336Z,99729.28
2024-02-08T10:28:55.930Z,99711.63
2024-02-08T10:31:30.404Z,99711.59
2024-02-08T10:34:24.896Z,99700.41
2024-02-08T10:36:56.666Z,99706.34
2024-02-08T10:39:33.799Z,99690.63
2024-02-08T10:42:05.242Z,99683.31
2024-02-08T10:44:36.952Z,99685.91
2024-02-08T10:47:11.401Z,99686.22
2024-02-08T10:49:51.797Z,99681.59
2024-02-08T10:52:23.995Z,99691.91
2024-02-08T10:54:57.204Z,99694.25
2024-02-08T10:57:41.487Z,99691.78
2024-02-08T11:00:28.983Z,99695.16
2024-02-08T11:03:10.280Z,99685.34
2024-02-08T11:05:50.672Z,99671.94
2024-02-08T11:08:34.753Z,99669.06
2024-02-08T11:11:11.667Z,99659.53
2024-02-08T11:13:47.028Z,99660.28
2024-02-08T11:16:24.623Z,99664.34
2024-02-08T11:18:57.216Z,99670.97
2024-02-08T11:21:44.256Z,99670.53
2024-02-08T11:24:30.139Z,99677.28
2024-02-08T11:27:04.320Z,99660.69
2024-02-08T11:29:47.320Z,99661.50
2024-02-08T11:32:20.258Z,99657.28
2024-02-08T11:34:56.458Z,99658.91
2024-02-08T11:37:39.940Z,99650.53
2024-02-08T11:40:13.447Z,99651.16
2024-02-08T11:42:43.830Z,99657.09
2024-02-08T11:45:23.697Z,99644.38
2024-02-08T11:47:59.757Z,99636.06
2024-02-08T11:50:37.793Z,99635.47
2024-02-08T11:53:10.999Z,99630.50
2024-02-08T11:55:41.219Z,99632.34
2024-02-08T11:58:13.298Z,99629.19
2024-02-08T12:00:50.713Z,99625.75
2024-02-08T12:03:22.061Z,99632.56
2024-02-08T12:05:58.759Z,99625.88
2024-02-08T12:08:37.732Z,99628.94
2024-02-08T12:11:13.633Z,99623.09
2024-02-08T12:13:46.540Z,99613.03
2024-02-08T12:16:18.802Z,99612.66
2024-02-08T12:18:49.059Z,99612.41
2024-02-08T12:21:24.733Z,99609.53
2024-02-08T12:23:59.099Z,99610.50
2024-02-08T12:26:33.065Z,99610.22
2024-02-08T12:29:07.899Z,99606.47
2024-02-08T12:31:40.047Z,99605.34
2024-02-08T12:34:10.598Z,99594.88
2024-02-08T12:36:41.830Z,99592.25
2024-02-08T12:39:21.872Z,99580.34
2024-02-08T12:41:54.922Z,99575.66
2024-02-08T12:44:26.030Z,99578.28
2024-02-08T12:47:00.341Z,99574.97
2024-02-08T12:49:35.101Z,99572.94
2024-02-08T12:52:07.160Z,99566.75
2024-02-08T12:54:39.967Z,99565.69
2024-02-08T12:57:12.187Z,99563.34
2024-02-08T12:59:44.262Z,99559.75
2024-02-08T13:02:20.360Z,99559.91
2024-02-08T13:04:52.265Z,99557.84
2024-02-08T13:07:27.083Z,99554.81
2024-02-08T13:10:16.486Z,99551.66
2024-02-08T13:12:49.056Z,99544.22
2024-02-08T13:15:24.501Z,99547.41
2024-02-08T13:17:57.927Z,99551.13
2024-02-08T13:20:28.823Z,99559.69
2024-02-08T13:22:59.310Z,99550.47
2024-02-08T13:25:32.075Z,99537.81
2024-02-08T13:28:03.754Z,99541.25
2024-02-08T13:30:38.171Z,99541.38
2024-02-08T13:33:12.633Z,99547.16
2024-02-08T13:35:47.430Z,99546.06
2024-02-08T13:38:23.043Z,99532.00
2024-02-08T13:41:00.967Z,99529.50
2024-02-08T13:43:32.325Z,99526.91
2024-02-08T13:46:03.216Z,99519.19
2024-02-08T13:48:33.509Z,99523.44
2024-02-08T13:53:52.081Z,99510.34
2024-02-08T13:56:24.771Z,99509.66
2024-02-08T13:58:56.749Z,99508.72
2024-02-08T14:01:27.738Z,99507.19
2024-02-08T14:04:08.477Z,99497.81
2024-02-08T14:06:42.654Z,99499.75
2024-02-08T14:09:25.285Z,99504.03
2024-02-08T14:12:00.255Z,99494.53
2024-02-08T14:14:42.045Z,99500.06
2024-02-08T14:17:12.682Z,99495.63
2024-02-08T14:19:45.239Z,99492.19
2024-02-08T14:22:17.898Z,99494.94
2024-02-08T14:24:55.251Z,99510.81
2024-02-08T14:27:29.875Z,99505.56
2024-02-08T14:30:06.822Z,99505.16
2024-02-08T14:32:37.228Z,99503.66
2024-02-08T14:35:18.056Z,99506.28
2024-02-08T14:37:48.904Z,99511.25
2024-02-08T14:40:19.330Z,99510.66
2024-02-08T14:42:52.047Z,99515.34
2024-02-08T14:45:26.076Z,99512.31
2024-02-08T14:48:01.894Z,99517.97
2024-02-08T14:50:44.262Z,99517.44
2024-02-08T14:53:14.513Z,99514.97
2024-02-08T14:55:46.786Z,99508.91
2024-02-08T14:58:32.038Z,99510.53
2024-02-08T15:01:09.605Z,99514.13
2024-02-08T15:03:40.116Z,99509.72
2024-02-08T15:06:31.268Z,99508.34
2024-02-08T15:09:26.492Z,99510.41
2024-02-08T15:11:59.379Z,99505.75
2024-02-08T15:14:37.177Z,99511.66
2024-02-08T15:17:25.075Z,99503.25
2024-02-08T15:20:01.108Z,99498.84
2024-02-08T15:22:48.158Z,99491.81
2024-02-08T15:25:19.398Z,99485.22
2024-02-08T15:27:54.635Z,99481.38
2024-02-08T15:30:38.284Z,99472.13
2024-02-08T15:33:18.537Z,99465.13
2024-02-08T15:36:01.125Z,99474.63
2024-02-08T15:38:46.643Z,99477.22
2024-02-08T15:41:21.072Z,99461.53
2024-02-08T15:43:49.968Z,99459.59
2024-02-08T15:46:29.622Z,99452.03
2024-02-08T15:49:01.581Z,99461.22
2024-02-08T15:51:38.487Z,99453.81
2024-02-08T15:54:24.508Z,99455.59
2024-02-08T15:56:57.564Z,99451.47
2024-02-08T15:59:29.044Z,99449.25
2024-02-08T16:01:59.679Z,99453.94
2024-02-08T16:04:46.782Z,99449.69
2024-02-08T16:07:20.669Z,99450.66
2024-02-08T16:09:51.514Z,99443.75
2024-02-08T16:12:38.172Z,99442.25
2024-02-08T16:15:09.776Z,99434.81
2024-02-08T16:17:59.767Z,99425.59
2024-02-08T16:20:40.189Z,99424.06
2024-02-08T16:23:17.510Z,99429.69
2024-02-08T16:26:07.667Z,99423.78
2024-02-08T16:28:47.167Z,99418.81
2024-02-08T16:31:33.197Z,99413.03
2024-02-08T16:34:19.954Z,99411.38
2024-02-08T16:36:53.349Z,99408.09
2024-02-08T16:39:35.389Z,99406.28
2024-02-08T16:42:19.520Z,99407.81
2024-02-08T16:44:58.332Z,99404.78
2024-02-08T16:47:36.110Z,99402.84
2024-02-08T16:50:19.308Z,99403.53
2024-02-08T16:52:59.493Z,99398.19
2024-02-08T16:55:38.467Z,99399.00
2024-02-08T16:58:30.144Z,99394.06
2024-02-08T17:01:06.763Z,99378.66
2024-02-08T17:03:49.550Z,99381.53
2024-02-08T17:06:28.449Z,99378.22
2024-02-08T17:09:17.494Z,99386.06
2024-02-08T17:12:00.082Z,99379.19
2024-02-08T17:14:48.275Z,99376.31
2024-02-08T17:17:36.920Z,99372.03
2024-02-08T17:20:24.063Z,99375.34
2024-02-08T17:23:17.786Z,99365.56
2024-02-08T17:25:57.023Z,99375.91
2024-02-08T17:28:38.909Z,99370.53
2024-02-08T17:31:23.546Z,99376.72
2024-02-08T17:33:58.214Z,99378.66
2024-02-08T17:36:32.395Z,99372.88
2024-02-08T17:39:12.326Z,99375.47
2024-02-08T17:41:44.512Z,99382.50
2024-02-08T17:44:17.733Z,99384.28
2024-02-08T17:46:54.382Z,99397.50
2024-02-08T17:49:26.623Z,99391.31
2024-02-08T17:51:58.199Z,99389.78
2024-02-08T17:54:33.697Z,99394.06
2024-02-08T17:57:13.077Z,99389.78
2024-02-08T17:59:47.031Z,99393.50
2024-02-08T18:02:24.486Z,99402.44
2024-02-08T18:04:54.867Z,99403.69
2024-02-08T18:07:25.093Z,99410.81
2024-02-08T18:10:12.531Z,99410.28
2024-02-08T18:12:43.451Z,99415.78
2024-02-08T18:15:23.528Z,99416.72
2024-02-08T18:17:57.079Z,99420.53
2024-02-08T18:20:31.734Z,99415.44
2024-02-08T18:23:04.107Z,99426.97
2024-02-08T18:25:39.393Z,99421.19
2024-02-08T18:28:11.314Z,99431.22
2024-02-08T18:30:46.773Z,99432.31
2024-02-08T18:33:18.723Z,99422.13
2024-02-08T18:35:54.633Z,99425.56
2024-02-08T18:38:27.296Z,99433.53
2024-02-08T18:41:02.759Z,99420.63
2024-02-08T18:43:34.916Z,99417.31
2024-02-08T18:46:07.580Z,99422.66
2024-02-08T18:48:44.214Z,99426.47
2024-02-08T18:51:17.291Z,99424.13
2024-02-08T18:53:51.560Z,99420.25
2024-02-08T18:56:27.224Z,99418.88
2024-02-08T18:59:01.230Z,99411.69
2024-02-08T19:01:31.671Z,99419.09
2024-02-08T19:04:04.230Z,99410.00
2024-02-08T19:06:35.196Z,99418.78
2024-02-08T19:09:08.534Z,99407.66
2024-02-08T19:11:46.117Z,99415.84
2024-02-08T19:14:17.609Z,99400.44
2024-02-08T19:16:47.855Z,99383.97
2024-02-08T19:19:24.726Z,99388.50
2024-02-08T19:21:55.453Z,99389.31
2024-02-08T19:24:30.124Z,99394.66
2024-02-08T19:27:03.114Z,99402.22
2024-02-08T19:29:34.102Z,99392.75
2024-02-08T19:32:08.818Z,99384.22
2024-02-08T19:34:41.212Z,99379.16
2024-02-08T19:37:13.422Z,99374.88
2024-02-08T19:39:43.533Z,99367.19
2024-02-08T19:42:23.604Z,99363.88
2024-02-08T19:44:57.670Z,99362.09
2024-02-08T19:47:31.270Z,99350.97
2024-02-08T19:50:07.308Z,99347.66
2024-02-08T19:52:41.825Z,99347.78
2024-02-08T19:55:24.692Z,99344.22
2024-02-08T19:58:14.330Z,99333.78
2024-02-08T20:00:50.136Z,99339.28
2024-02-08T20:03:28.397Z,99336.94
2024-02-08T20:06:02.059Z,99323.44
2024-02-08T20:08:32.685Z,99327.97
2024-02-08T20:11:12.739Z,99314.25
2024-02-08T20:13:47.653Z,99325.50
2024-02-08T20:16:28.102Z,99322.41
2024-02-08T20:18:59.584Z,99316.50
2024-02-08T20:21:32.943Z,99317.59
2024-02-08T20:24:06.597Z,99320.22
2024-02-08T20:26:39.357Z,99324.59
2024-02-08T20:29:16.072Z,99311.13
2024-02-08T20:31:51.070Z,99313.84
2024-02-08T20:34:21.195Z,99296.56
2024-02-08T20:36:51.899Z,99306.16
2024-02-08T20:39:23.459Z,99307.00
2024-02-08T20:41:55.063Z,99296.56
2024-02-08T20:44:30.706Z,99300.00
2024-02-08T20:47:02.534Z,99301.78
2024-02-08T20:49:36.161Z,99302.59
2024-02-08T20:52:08.303Z,99299.03
2024-02-08T20:54:41.874Z,99293.97
2024-02-08T20:57:12.486Z,99290.66
2024-02-08T20:59:47.901Z,99286.38
2024-02-08T21:02:20.114Z,99290.78
2024-02-08T21:04:50.768Z,99293.53
2024-02-08T21:07:21.932Z,99274.44
2024-02-08T21:09:54.505Z,99283.09
2024-02-08T21:12:24.733Z,99281.44
2024-02-08T21:14:59.921Z,99281.44
2024-02-08T21:17:30.489Z,99271.00
2024-02-08T21:20:00.844Z,99265.78
2024-02-08T21:22:31.189Z,99271.00
2024-02-08T21:25:01.575Z,99266.75
2024-02-08T21:27:34.977Z,99263.19
2024-02-08T21:30:12.926Z,99260.44
2024-02-08T21:32:48.044Z,99263.19
2024-02-08T21:35:18.826Z,99263.06
2024-02-08T21:37:48.959Z,99260.84
2024-02-08T21:40:19.224Z,99264.66
2024-02-08T21:42:51.364Z,99254.50
2024-02-08T21:45:24.506Z,99258.06
2024-02-08T21:47:54.631Z,99257.25
2024-02-08T21:50:24.908Z,99249.28
2024-02-08T21:52:55.212Z,99257.09
2024-02-08T21:55:26.109Z,99255.47
2024-02-08T21:57:56.251Z,99248.81
2024-02-08T22:00:33.806Z,99243.59
2024-02-08T22:03:04.340Z,99257.59
2024-02-08T22:05:37.030Z,99255.00
2024-02-08T22:08:07.865Z,99250.38
2024-02-08T22:10:40.578Z,99241.59
2024-02-08T22:13:11.923Z,99242.69
2024-02-08T22:15:44.843Z,99242.91
2024-02-08T22:18:16.130Z,99234.41
2024-02-08T22:20:46.381Z,99252.66
2024-02-08T22:23:16.593Z,99248.25
2024-02-08T22:25:47.777Z,99239.47
2024-02-08T22:28:18.738Z,99243.88
2024-02-08T22:30:51.597Z,99242.22
2024-02-08T22:33:22.716Z,99233.00
2024-02-08T22:35:53.977Z,99237.53
2024-02-08T22:38:24.085Z,99229.72
2024-02-08T22:40:59.590Z,99233.13
2024-02-08T22:43:29.946Z,99228.06
2024-02-08T22:46:02.686Z,99231.63
2024-02-08T22:48:32.763Z,99229.13
2024-02-08T22:51:03.396Z,99234.47
2024-02-08T22:53:35.670Z,99230.09
2024-02-08T22:56:07.265Z,99231.63
2024-02-08T22:58:37.400Z,99229.84
2024-02-08T23:01:24.061Z,99227.38
2024-02-08T23:03:54.583Z,99232.84
2024-02-08T23:06:24.842Z,99227.75
2024-02-08T23:08:55.922Z,99222.66
2024-02-08T23:11:26.035Z,99225.97
2024-02-08T23:13:56.126Z,99232.56
2024-02-08T23:16:31.485Z,99229.84
2024-02-08T23:19:03.167Z,99236.69
2024-02-08T23:21:34.436Z,99228.06
2024-02-08T23:24:14.319Z,99228.06
2024-02-08T23:26:45.043Z,99220.25
2024-02-08T23:29:15.089Z,99210.78
2024-02-08T23:31:52.674Z,99212.41
2024-02-08T23:34:25.616Z,99207.22
2024-02-08T23:36:58.686Z,99208.69
2024-02-08T23:39:29.424Z,99204.56
2024-02-08T23:42:00.579Z,99198.53
2024-02-08T23:44:31.328Z,99203.72
2024-02-08T23:47:06.629Z,99201.13
2024-02-08T23:49:37.110Z,99194.25
2024-02-08T23:52:13.515Z,99192.63
2024-02-08T23:54:45.077Z,99184.81
2024-02-08T23:57:16.388Z,99184.66
2024-02-08T23:59:51.528Z,99187.41
